William P Hobby Airport
KHOU : now visible

Airfield :











YOU CAN JOIN US ON...

 
LOGIN :

Register | Disclaimer

   EN    FR    IT 

 









Legend :    VFR   Marginal VFR   IFR   Intensive IFR   Very Intensive IFR
Visi :
Ceiling :
>= 8 km
>= 3000ft
5 to 8 km
1000 to 3000 ft
1500m to 5 km
500 to 1000 ft
800 to 1500m
200 to 500 ft
< 800m
< 200 ft
Symbols :   Thunderstorms  Fog  Heavy snow  Heavy precipitations  Wind > 20 kt







- Airport Elevation : 46 ft
- IATA code : HOU


KHOU - William P Hobby

CURRENT METAR :
  • 190453Z 00000KT 10SM FEW010 BKN130 14/06 A3027 RMK AO2 SLP254 FU FEW010 VC NE T01390061

EXPIRED METARs :
  • 190353Z 09005KT 10SM FEW006 SCT160 BKN250 14/06 A3027 RMK AO2 SLP253 FU FEW006 T01440061
  • 190253Z 11005KT 10SM FEW006 BKN160 BKN250 16/06 A3026 RMK AO2 SLP251 FEW FEW006 T01560056 51014

TAF KHOU
Valid from the 19 at 03:00 until the 20 at 00:00 UTC


190259Z 1903/1924 11005KT P6SM SCT006 BKN160 BKN250
FM191500 07008KT P6SM FEW020 SCT140 SCT250
FM192100 12010KT P6SM FEW070 SCT150
KZHU FIR / North America



MET'MAP, your aeronautical weather chart ! - Copyright ORBIFLY December 2007 - Disclaimer

ORBIFLY MET'MAP TEAM :

Programming & Development : Alexandra Zaïnal
Concept & Development : Baudouin d'Aumeries
Co-Development & Prog : Marc-Olivier Méhu
Technical & hardware support : Manuel Goepfert

Contact : metmap@orbifly.com




SOURCES & CREDITS :

   NOAA       Earth
Advisory